Terminal Aerodrome Forecast
Issued by NWS

Home | Current Version | Previous Version | Text Only | Print | Product List | Glossary On
Versions: 1 2 3 4 5 6 7 8 9 10 11 12 13 14 15 16
581
FTUS46 KPDT 161120
TAFDLS
TAF
KDLS 161120Z 1612/1712 VRB05KT P6SM OVC045
     FM161800 30007KT P6SM SCT015 BKN070
     FM170600 VRB04KT P6SM SCT050 BKN150=

USA.gov is the U.S. government's official web portal to all federal, state and local government web resources and services.